createdAt,value
2023-04-23T00:02:09.278Z,30.40
2023-04-23T00:04:39.825Z,30.30
2023-04-23T00:07:09.054Z,30.70
2023-04-23T00:09:37.331Z,30.40
2023-04-23T00:12:07.621Z,30.20
2023-04-23T00:14:38.055Z,30.40
2023-04-23T00:17:06.117Z,30.70
2023-04-23T00:19:34.052Z,30.40
2023-04-23T00:22:02.918Z,30.00
2023-04-23T00:24:31.892Z,30.80
2023-04-23T00:26:59.917Z,30.50
2023-04-23T00:29:27.885Z,30.50
2023-04-23T00:31:57.355Z,30.40
2023-04-23T00:34:25.329Z,30.90
2023-04-23T00:36:53.342Z,30.90
2023-04-23T00:39:21.335Z,30.80
2023-04-23T00:41:49.605Z,30.70
2023-04-23T00:44:17.657Z,31.00
2023-04-23T00:46:46.140Z,30.70
2023-04-23T00:49:16.334Z,31.40
2023-04-23T00:51:44.250Z,30.90
2023-04-23T00:54:12.556Z,31.10
2023-04-23T00:56:40.805Z,30.90
2023-04-23T00:59:08.784Z,31.00
2023-04-23T01:01:36.963Z,31.20
2023-04-23T01:04:05.310Z,30.90
2023-04-23T01:06:35.045Z,31.40
2023-04-23T01:09:03.534Z,31.40
2023-04-23T01:11:31.812Z,31.30
2023-04-23T01:14:00.834Z,31.00
2023-04-23T01:16:28.854Z,31.30
2023-04-23T01:18:58.323Z,32.00
2023-04-23T01:21:27.000Z,31.60
2023-04-23T01:23:56.545Z,31.00
2023-04-23T01:26:25.117Z,31.10
2023-04-23T01:28:53.784Z,31.20
2023-04-23T01:31:22.230Z,31.70
2023-04-23T01:33:51.963Z,31.30
2023-04-23T01:36:20.686Z,31.70
2023-04-23T01:38:48.713Z,31.20
2023-04-23T01:41:18.887Z,31.20
2023-04-23T01:43:47.168Z,32.00
2023-04-23T01:46:15.393Z,31.80
2023-04-23T01:48:43.466Z,31.90
2023-04-23T01:51:11.436Z,32.10
2023-04-23T01:53:39.400Z,32.10
2023-04-23T01:56:09.777Z,33.40
2023-04-23T01:58:39.086Z,32.90
2023-04-23T02:01:07.049Z,32.60
2023-04-23T02:03:35.368Z,32.80
2023-04-23T02:06:04.909Z,32.90
2023-04-23T02:08:32.897Z,32.70
2023-04-23T02:11:00.862Z,32.70
2023-04-23T02:13:28.965Z,32.90
2023-04-23T02:15:58.342Z,32.80
2023-04-23T02:18:26.665Z,32.90
2023-04-23T02:20:56.389Z,33.00
2023-04-23T02:23:24.364Z,32.70
2023-04-23T02:25:52.402Z,33.00
2023-04-23T02:28:20.330Z,32.70
2023-04-23T02:30:48.326Z,33.30
2023-04-23T02:33:19.442Z,32.80
2023-04-23T02:35:47.578Z,33.40
2023-04-23T02:38:15.551Z,32.90
2023-04-23T02:40:44.137Z,33.10
2023-04-23T02:43:12.102Z,33.80
2023-04-23T02:45:40.060Z,33.80
2023-04-23T02:48:08.009Z,33.30
2023-04-23T02:50:39.007Z,33.60
2023-04-23T02:53:06.969Z,33.30
2023-04-23T02:55:34.936Z,34.00
2023-04-23T02:58:02.866Z,33.50
2023-04-23T03:00:31.383Z,33.60
2023-04-23T03:02:59.415Z,32.60
2023-04-23T03:05:27.474Z,33.90
2023-04-23T03:07:56.723Z,32.70
2023-04-23T03:10:24.690Z,33.00
2023-04-23T03:12:52.627Z,32.70
2023-04-23T03:15:20.942Z,32.60
2023-04-23T03:17:49.188Z,33.30
2023-04-23T03:20:17.226Z,33.50
2023-04-23T03:22:45.808Z,34.10
2023-04-23T03:25:15.152Z,33.90
2023-04-23T03:27:44.429Z,33.40
2023-04-23T03:30:13.512Z,33.30
2023-04-23T03:32:41.498Z,33.20
2023-04-23T03:35:10.685Z,34.00
2023-04-23T03:37:38.706Z,33.00
2023-04-23T03:40:09.184Z,33.70
2023-04-23T03:42:38.669Z,34.40
2023-04-23T03:45:08.571Z,33.70
2023-04-23T03:47:36.941Z,34.60
2023-04-23T03:50:06.687Z,34.30
2023-04-23T03:52:34.724Z,34.20
2023-04-23T03:55:02.806Z,33.20
2023-04-23T03:57:30.882Z,34.20
2023-04-23T04:00:00.669Z,34.80
2023-04-23T04:02:29.058Z,34.10
2023-04-23T04:04:57.396Z,33.40
2023-04-23T04:07:25.791Z,33.80
2023-04-23T04:09:53.742Z,34.40
2023-04-23T04:12:21.773Z,34.20
2023-04-23T04:14:49.749Z,32.40
2023-04-23T04:17:19.134Z,33.50
2023-04-23T04:19:47.161Z,33.00
2023-04-23T04:22:16.115Z,34.70
2023-04-23T04:24:44.305Z,34.50
2023-04-23T04:27:12.662Z,34.40
2023-04-23T04:29:40.961Z,33.00
2023-04-23T04:32:09.543Z,33.30
2023-04-23T04:34:39.165Z,34.50
2023-04-23T04:37:10.833Z,34.50
2023-04-23T04:39:38.843Z,34.70
2023-04-23T04:42:07.920Z,33.50
2023-04-23T04:44:37.359Z,33.50
2023-04-23T04:47:06.609Z,33.60
2023-04-23T04:49:34.849Z,33.80
2023-04-23T04:52:04.197Z,33.50
2023-04-23T04:54:32.238Z,33.70
2023-04-23T04:57:00.679Z,34.20
2023-04-23T04:59:28.689Z,34.70
2023-04-23T05:01:57.573Z,33.90
2023-04-23T05:04:25.625Z,32.70
2023-04-23T05:06:53.655Z,33.90
2023-04-23T05:09:22.933Z,34.60
2023-04-23T05:11:51.703Z,34.30
2023-04-23T05:14:19.633Z,33.30
2023-04-23T05:16:47.648Z,34.80
2023-04-23T05:19:15.632Z,34.80
2023-04-23T05:21:43.703Z,32.90
2023-04-23T05:24:11.720Z,32.90
2023-04-23T05:26:41.144Z,34.70
2023-04-23T05:29:09.114Z,33.10
2023-04-23T05:31:37.109Z,32.90
2023-04-23T05:34:05.049Z,32.70
2023-04-23T05:36:33.067Z,34.50
2023-04-23T05:39:01.048Z,32.90
2023-04-23T05:41:29.054Z,34.50
2023-04-23T05:43:58.407Z,33.60
2023-04-23T05:46:26.594Z,34.30
2023-04-23T05:48:54.688Z,34.20
2023-04-23T05:51:22.769Z,34.50
2023-04-23T05:53:50.771Z,33.20
2023-04-23T05:56:18.796Z,33.20
2023-04-23T05:58:47.300Z,33.00
2023-04-23T06:01:16.619Z,33.30
2023-04-23T06:03:45.626Z,34.90
2023-04-23T06:06:14.501Z,34.60
2023-04-23T06:08:42.441Z,33.20
2023-04-23T06:11:10.383Z,34.50
2023-04-23T06:13:42.934Z,34.10
2023-04-23T06:16:11.961Z,34.70
2023-04-23T06:18:41.373Z,34.90
2023-04-23T06:21:10.996Z,34.20
2023-04-23T06:23:38.953Z,33.40
2023-04-23T06:26:07.033Z,34.00
2023-04-23T06:28:35.052Z,33.00
2023-04-23T06:31:03.853Z,34.30
2023-04-23T06:33:31.961Z,33.40
2023-04-23T06:36:01.327Z,34.10
2023-04-23T06:38:29.281Z,33.40
2023-04-23T06:40:57.420Z,33.50
2023-04-23T06:43:25.609Z,33.60
2023-04-23T06:45:53.584Z,33.20
2023-04-23T06:48:22.106Z,33.20
2023-04-23T06:50:50.290Z,33.10
2023-04-23T06:53:19.590Z,33.30
2023-04-23T06:55:49.721Z,34.20
2023-04-23T06:58:17.749Z,33.30
2023-04-23T07:00:45.791Z,33.40
2023-04-23T07:03:14.109Z,33.60
2023-04-23T07:05:42.195Z,33.30
2023-04-23T07:08:10.168Z,33.30
2023-04-23T07:10:39.561Z,33.50
2023-04-23T07:13:07.538Z,33.40
2023-04-23T07:15:35.563Z,33.70
2023-04-23T07:18:03.743Z,33.60
2023-04-23T07:20:31.849Z,33.40
2023-04-23T07:23:00.700Z,33.80
2023-04-23T07:25:28.607Z,33.70
2023-04-23T07:27:58.285Z,34.10
2023-04-23T07:30:28.080Z,33.30
2023-04-23T07:32:56.503Z,33.30
2023-04-23T07:35:24.452Z,33.90
2023-04-23T07:37:53.859Z,34.00
2023-04-23T07:40:23.157Z,33.40
2023-04-23T07:42:52.930Z,31.30
2023-04-23T07:45:22.232Z,30.50
2023-04-23T07:47:51.852Z,29.80
2023-04-23T07:50:20.098Z,29.40
2023-04-23T07:52:48.404Z,29.00
2023-04-23T07:55:16.964Z,29.30
2023-04-23T07:57:45.001Z,28.70
2023-04-23T08:00:14.279Z,28.80
2023-04-23T08:02:43.744Z,28.20
2023-04-23T08:05:11.971Z,28.40
2023-04-23T08:07:40.030Z,28.70
2023-04-23T08:10:09.760Z,27.90
2023-04-23T08:12:37.836Z,28.10
2023-04-23T08:15:07.009Z,28.10
2023-04-23T08:17:35.075Z,27.80
2023-04-23T08:20:06.569Z,27.80
2023-04-23T08:22:34.558Z,28.20
2023-04-23T08:25:02.545Z,27.80
2023-04-23T08:27:30.820Z,27.30
2023-04-23T08:29:58.800Z,28.00
2023-04-23T08:32:26.922Z,27.60
2023-04-23T08:34:54.922Z,27.90
2023-04-23T08:37:30.891Z,27.40
2023-04-23T08:39:59.503Z,27.40
2023-04-23T08:42:37.777Z,27.20
2023-04-23T08:45:07.399Z,27.40
2023-04-23T08:47:36.746Z,27.70
2023-04-23T08:50:07.040Z,27.80
2023-04-23T08:52:42.336Z,27.80
2023-04-23T08:55:11.617Z,27.20
2023-04-23T08:57:41.609Z,27.20
2023-04-23T09:00:11.561Z,27.50
2023-04-23T09:02:42.520Z,27.40
2023-04-23T09:05:11.534Z,26.70
2023-04-23T09:07:41.486Z,26.70
2023-04-23T09:10:12.886Z,27.10
2023-04-23T09:12:44.970Z,27.10
2023-04-23T09:15:14.024Z,27.30
2023-04-23T09:17:44.356Z,27.10
2023-04-23T09:20:13.990Z,26.30
2023-04-23T09:22:47.563Z,26.60
2023-04-23T09:25:20.076Z,26.10
2023-04-23T09:27:49.105Z,26.50
2023-04-23T09:30:18.002Z,26.40
2023-04-23T09:32:48.153Z,26.50
2023-04-23T09:35:19.783Z,26.40
2023-04-23T09:37:52.271Z,26.30
2023-04-23T09:40:23.235Z,26.30
2023-04-23T09:42:54.234Z,26.10
2023-04-23T09:45:24.984Z,26.50
2023-04-23T09:47:55.741Z,26.30
2023-04-23T09:50:34.420Z,26.10
2023-04-23T09:53:04.140Z,26.60
2023-04-23T09:55:37.281Z,26.40
2023-04-23T09:58:06.504Z,26.50
2023-04-23T10:00:36.385Z,26.70
2023-04-23T10:03:06.637Z,26.50
2023-04-23T10:05:59.672Z,26.40
2023-04-23T10:08:29.633Z,26.50
2023-04-23T10:11:09.645Z,26.70
2023-04-23T10:13:45.810Z,26.60
2023-04-23T10:16:22.435Z,26.30
2023-04-23T10:18:55.166Z,25.80
2023-04-23T10:21:30.693Z,26.30
2023-04-23T10:24:07.207Z,26.30
2023-04-23T10:26:38.875Z,27.30
2023-04-23T10:29:10.992Z,26.50
2023-04-23T10:31:39.646Z,26.50
2023-04-23T10:34:10.820Z,26.40
2023-04-23T10:36:39.495Z,26.40
2023-04-23T10:39:10.378Z,26.50
2023-04-23T10:41:41.320Z,26.20
2023-04-23T10:44:15.853Z,26.10
2023-04-23T10:46:53.686Z,26.60
2023-04-23T10:49:24.588Z,26.40
2023-04-23T10:54:36.147Z,26.60
2023-04-23T10:57:06.592Z,26.60
2023-04-23T10:59:37.030Z,26.60
2023-04-23T11:02:09.925Z,26.70
2023-04-23T11:04:43.823Z,26.60
2023-04-23T11:07:13.241Z,26.70
2023-04-23T11:09:45.258Z,26.50
2023-04-23T11:12:15.989Z,27.00
2023-04-23T11:14:49.553Z,26.50
2023-04-23T11:17:19.262Z,26.30
2023-04-23T11:20:10.230Z,26.20
2023-04-23T11:22:40.798Z,26.10
2023-04-23T11:25:12.816Z,26.40
2023-04-23T11:27:43.712Z,26.40
2023-04-23T11:30:15.038Z,26.40
2023-04-23T11:32:45.838Z,26.40
2023-04-23T11:35:15.596Z,26.30
2023-04-23T11:37:45.177Z,26.10
2023-04-23T11:40:19.029Z,25.80
2023-04-23T11:42:49.398Z,26.00
2023-04-23T11:45:18.968Z,26.20
2023-04-23T11:47:48.374Z,26.40
2023-04-23T11:50:20.586Z,26.00
2023-04-23T11:52:49.214Z,26.40
2023-04-23T11:55:18.929Z,26.40
2023-04-23T11:57:49.699Z,26.10
2023-04-23T12:00:20.093Z,26.20
2023-04-23T12:02:55.972Z,26.20
2023-04-23T12:05:28.402Z,26.10
2023-04-23T12:08:07.860Z,26.20
2023-04-23T12:10:44.159Z,26.10
2023-04-23T12:13:16.447Z,25.60
2023-04-23T12:15:49.919Z,26.20
2023-04-23T12:18:18.896Z,25.80
2023-04-23T12:20:47.236Z,23.80
2023-04-23T12:23:15.258Z,22.40
2023-04-23T12:25:44.698Z,20.80
2023-04-23T12:28:12.659Z,20.50
2023-04-23T12:30:45.464Z,20.10
2023-04-23T12:33:15.047Z,19.40
2023-04-23T12:35:46.320Z,19.10
2023-04-23T12:38:24.762Z,19.70
2023-04-23T12:40:55.522Z,18.90
2023-04-23T12:43:24.537Z,18.50
2023-04-23T12:45:52.993Z,17.70
2023-04-23T12:48:21.188Z,17.50
2023-04-23T12:50:49.674Z,18.30
2023-04-23T12:53:20.483Z,16.90
2023-04-23T12:55:50.119Z,17.60
2023-04-23T12:58:19.899Z,17.10
2023-04-23T13:00:48.143Z,16.90
2023-04-23T13:03:17.452Z,16.60
2023-04-23T13:05:48.781Z,15.60
2023-04-23T13:08:16.801Z,16.60
2023-04-23T13:10:45.888Z,16.10
2023-04-23T13:13:13.914Z,16.00
2023-04-23T13:15:43.509Z,15.90
2023-04-23T13:18:11.525Z,15.50
2023-04-23T13:20:39.555Z,15.30
2023-04-23T13:23:12.217Z,15.30
2023-04-23T13:25:40.319Z,15.80
2023-04-23T13:28:08.629Z,15.70
2023-04-23T13:30:45.978Z,16.00
2023-04-23T13:33:15.537Z,15.60
2023-04-23T13:35:44.037Z,14.60
2023-04-23T13:38:12.191Z,15.20
2023-04-23T13:40:40.443Z,16.30
2023-04-23T13:43:08.702Z,14.80
2023-04-23T13:45:36.899Z,16.20
2023-04-23T13:48:05.519Z,16.00
2023-04-23T13:50:35.160Z,15.50
2023-04-23T13:53:03.217Z,15.60
2023-04-23T13:55:31.561Z,15.70
2023-04-23T13:58:00.065Z,15.40
2023-04-23T14:00:30.247Z,15.50
2023-04-23T14:02:58.661Z,15.60
2023-04-23T14:05:26.894Z,16.50
2023-04-23T14:07:56.490Z,16.40
2023-04-23T14:10:24.630Z,16.20
2023-04-23T14:12:54.201Z,16.60
2023-04-23T14:15:22.687Z,16.20
2023-04-23T14:17:50.784Z,16.80
2023-04-23T14:20:20.007Z,16.60
2023-04-23T14:22:51.722Z,16.90
2023-04-23T14:25:36.497Z,16.90
2023-04-23T14:28:29.119Z,17.10
2023-04-23T14:30:58.626Z,17.30
2023-04-23T14:33:26.585Z,17.10
2023-04-23T14:35:54.634Z,17.30
2023-04-23T14:38:22.927Z,17.50
2023-04-23T14:40:52.258Z,17.70
2023-04-23T14:43:20.254Z,17.60
2023-04-23T14:45:48.501Z,17.50
2023-04-23T14:48:16.550Z,17.90
2023-04-23T14:50:44.549Z,17.80
2023-04-23T14:53:12.503Z,18.10
2023-04-23T14:55:43.119Z,18.10
2023-04-23T14:58:12.437Z,18.30
2023-04-23T15:00:41.179Z,18.20
2023-04-23T15:03:10.954Z,18.30
2023-04-23T15:05:39.925Z,18.40
2023-04-23T15:08:07.980Z,18.60
2023-04-23T15:10:35.982Z,18.70
2023-04-23T15:13:08.966Z,18.20
2023-04-23T15:15:45.283Z,18.20
2023-04-23T15:18:16.466Z,18.80
2023-04-23T15:20:45.319Z,18.80
2023-04-23T15:23:13.555Z,19.20
2023-04-23T15:25:41.576Z,19.20
2023-04-23T15:28:09.861Z,19.80
2023-04-23T15:30:39.973Z,19.40
2023-04-23T15:33:07.967Z,19.20
2023-04-23T15:35:36.007Z,19.60
2023-04-23T15:38:04.193Z,20.00
2023-04-23T15:40:33.319Z,20.00
2023-04-23T15:43:01.383Z,19.90
2023-04-23T15:45:29.426Z,20.20
2023-04-23T15:47:58.946Z,20.20
2023-04-23T15:50:27.163Z,20.50
2023-04-23T15:52:57.253Z,20.50
2023-04-23T15:55:25.588Z,20.90
2023-04-23T15:57:53.639Z,20.70
2023-04-23T16:00:21.938Z,20.70
2023-04-23T16:02:50.731Z,20.90
2023-04-23T16:05:20.721Z,21.00
2023-04-23T16:07:48.810Z,20.70
2023-04-23T16:10:16.994Z,21.10
2023-04-23T16:12:45.834Z,21.30
2023-04-23T16:15:14.388Z,21.00
2023-04-23T16:17:42.808Z,21.70
2023-04-23T16:20:17.160Z,21.60
2023-04-23T16:22:46.816Z,21.60
2023-04-23T16:25:15.065Z,22.30
2023-04-23T16:27:43.329Z,22.20
2023-04-23T16:30:12.510Z,22.10
2023-04-23T16:32:40.980Z,22.50
2023-04-23T16:35:10.326Z,22.50
2023-04-23T16:37:38.672Z,22.30
2023-04-23T16:40:10.275Z,23.00
2023-04-23T16:43:02.303Z,22.70
2023-04-23T16:45:34.878Z,22.60
2023-04-23T16:48:05.998Z,22.80
2023-04-23T16:50:34.074Z,22.90
2023-04-23T16:53:02.825Z,23.00
2023-04-23T16:55:32.558Z,23.20
2023-04-23T16:58:00.837Z,23.50
2023-04-23T17:00:30.966Z,22.90
2023-04-23T17:03:01.007Z,23.40
2023-04-23T17:05:34.134Z,23.80
2023-04-23T17:08:02.500Z,23.70
2023-04-23T17:10:32.074Z,24.00
2023-04-23T17:13:00.359Z,23.70
2023-04-23T17:15:28.730Z,23.80
2023-04-23T17:17:57.134Z,23.90
2023-04-23T17:20:28.957Z,24.20
2023-04-23T17:22:57.216Z,24.10
2023-04-23T17:25:25.479Z,24.20
2023-04-23T17:27:55.476Z,24.40
2023-04-23T17:30:29.738Z,24.50
2023-04-23T17:32:57.976Z,24.60
2023-04-23T17:35:26.304Z,24.60
2023-04-23T17:37:54.824Z,24.80
2023-04-23T17:40:22.967Z,24.80
2023-04-23T17:42:51.062Z,24.30
2023-04-23T17:45:20.512Z,24.90
2023-04-23T17:47:48.620Z,24.90
2023-04-23T17:50:17.192Z,24.90
2023-04-23T17:53:01.029Z,24.90
2023-04-23T17:55:29.880Z,25.00
2023-04-23T17:58:00.490Z,25.20
2023-04-23T18:00:30.369Z,25.20
2023-04-23T18:02:59.194Z,25.50
2023-04-23T18:05:27.779Z,25.30
2023-04-23T18:07:56.343Z,25.20
2023-04-23T18:10:28.492Z,25.10
2023-04-23T18:12:57.138Z,25.60
2023-04-23T18:15:25.907Z,25.10
2023-04-23T18:17:55.751Z,25.70
2023-04-23T18:20:28.020Z,25.70
2023-04-23T18:22:58.116Z,25.50
2023-04-23T18:25:26.863Z,26.00
2023-04-23T18:27:55.263Z,26.10
2023-04-23T18:30:28.991Z,26.30
2023-04-23T18:33:08.912Z,26.30
2023-04-23T18:35:37.485Z,26.60
2023-04-23T18:38:11.301Z,27.40
2023-04-23T18:40:39.661Z,27.20
2023-04-23T18:43:07.802Z,26.80
2023-04-23T18:45:36.125Z,27.20
2023-04-23T18:48:42.240Z,27.20
2023-04-23T18:51:23.045Z,27.30
2023-04-23T18:53:53.330Z,27.20
2023-04-23T18:56:21.704Z,27.50
2023-04-23T18:58:49.722Z,27.50
2023-04-23T19:01:18.771Z,28.10
2023-04-23T19:03:49.473Z,27.30
2023-04-23T19:06:23.237Z,27.60
2023-04-23T19:08:51.872Z,27.70
2023-04-23T19:11:20.263Z,27.80
2023-04-23T19:13:48.304Z,27.90
2023-04-23T19:16:19.259Z,28.00
2023-04-23T19:18:49.434Z,27.80
2023-04-23T19:21:17.914Z,28.70
2023-04-23T19:23:46.971Z,28.00
2023-04-23T19:26:17.838Z,27.80
2023-04-23T19:28:48.475Z,27.70
2023-04-23T19:31:16.893Z,28.00
2023-04-23T19:33:46.275Z,28.00
2023-04-23T19:36:16.222Z,27.80
2023-04-23T19:38:44.715Z,27.90
2023-04-23T19:41:13.048Z,27.90
2023-04-23T19:43:41.556Z,28.10
2023-04-23T19:46:09.945Z,28.30
2023-04-23T19:48:38.493Z,28.20
2023-04-23T19:51:08.497Z,28.00
2023-04-23T19:53:38.070Z,27.70
2023-04-23T19:56:08.640Z,28.00
2023-04-23T19:58:40.503Z,28.10
2023-04-23T20:01:09.040Z,28.00
2023-04-23T20:03:39.209Z,28.00
2023-04-23T20:06:10.871Z,28.20
2023-04-23T20:09:02.601Z,28.10
2023-04-23T20:11:31.262Z,28.00
2023-04-23T20:13:59.617Z,27.90
2023-04-23T20:16:28.757Z,27.80
2023-04-23T20:18:57.697Z,27.70
2023-04-23T20:21:26.730Z,27.90
2023-04-23T20:23:56.432Z,27.90
2023-04-23T20:26:24.729Z,28.00
2023-04-23T20:28:53.182Z,28.00
2023-04-23T20:31:22.223Z,28.00
2023-04-23T20:33:50.626Z,28.20
2023-04-23T20:36:19.915Z,28.20
2023-04-23T20:38:48.212Z,28.10
2023-04-23T20:41:18.649Z,27.90
2023-04-23T20:43:46.949Z,27.90
2023-04-23T20:46:16.297Z,28.00
2023-04-23T20:48:44.622Z,28.00
2023-04-23T20:51:15.772Z,27.90
2023-04-23T20:53:44.141Z,27.60
2023-04-23T20:56:12.608Z,27.80
2023-04-23T20:58:42.465Z,27.60
2023-04-23T21:01:12.262Z,27.80
2023-04-23T21:03:41.876Z,27.50
2023-04-23T21:06:12.346Z,27.60
2023-04-23T21:08:42.628Z,27.70
2023-04-23T21:11:13.664Z,27.50
2023-04-23T21:13:43.911Z,27.60
2023-04-23T21:16:12.529Z,27.40
2023-04-23T21:18:44.884Z,27.50
2023-04-23T21:21:15.344Z,27.70
2023-04-23T21:23:43.849Z,27.10
2023-04-23T21:26:12.299Z,27.40
2023-04-23T21:28:44.566Z,27.60
2023-04-23T21:31:19.004Z,27.70
2023-04-23T21:33:47.344Z,27.60
2023-04-23T21:36:15.597Z,27.40
2023-04-23T21:38:43.908Z,27.50
2023-04-23T21:41:12.307Z,27.70
2023-04-23T21:43:41.019Z,27.60
2023-04-23T21:46:13.623Z,27.80
2023-04-23T21:48:41.959Z,27.30
2023-04-23T21:51:11.552Z,27.70
2023-04-23T21:53:39.841Z,27.80
2023-04-23T21:56:10.929Z,27.40
2023-04-23T21:58:39.298Z,27.70
2023-04-23T22:01:08.027Z,27.80
2023-04-23T22:03:42.435Z,28.00
2023-04-23T22:06:10.941Z,27.80
2023-04-23T22:08:40.137Z,28.50
2023-04-23T22:11:09.267Z,27.80
2023-04-23T22:13:37.598Z,27.90
2023-04-23T22:16:16.470Z,28.10
2023-04-23T22:18:54.521Z,27.90
2023-04-23T22:21:22.888Z,28.40
2023-04-23T22:23:58.733Z,28.10
2023-04-23T22:26:27.100Z,28.40
2023-04-23T22:28:55.719Z,28.20
2023-04-23T22:31:24.141Z,28.50
2023-04-23T22:33:53.869Z,28.40
2023-04-23T22:36:22.099Z,28.40
2023-04-23T22:38:50.487Z,28.50
2023-04-23T22:41:18.769Z,28.70
2023-04-23T22:43:47.176Z,28.70
2023-04-23T22:46:18.926Z,28.70
2023-04-23T22:48:47.733Z,28.60
2023-04-23T22:51:18.816Z,28.50
2023-04-23T22:53:47.381Z,28.60
2023-04-23T22:56:16.062Z,28.70
2023-04-23T22:58:44.425Z,28.60
2023-04-23T23:01:12.776Z,28.80
2023-04-23T23:03:41.206Z,28.70
2023-04-23T23:06:09.502Z,28.80
2023-04-23T23:08:45.952Z,29.10
2023-04-23T23:11:14.244Z,28.80
2023-04-23T23:13:42.634Z,29.20
2023-04-23T23:16:11.444Z,29.00
2023-04-23T23:18:39.684Z,29.20
2023-04-23T23:21:07.990Z,29.30
2023-04-23T23:23:36.409Z,29.20
2023-04-23T23:26:06.371Z,29.40
2023-04-23T23:28:43.638Z,29.30
2023-04-23T23:31:12.020Z,29.60
2023-04-23T23:33:41.005Z,29.90
2023-04-23T23:36:10.397Z,29.30
2023-04-23T23:38:38.792Z,29.20
2023-04-23T23:41:08.425Z,29.30
2023-04-23T23:43:36.720Z,29.40
2023-04-23T23:46:04.997Z,29.40
2023-04-23T23:48:36.316Z,29.60
2023-04-23T23:51:05.239Z,29.60
2023-04-23T23:53:33.738Z,29.70
2023-04-23T23:56:02.044Z,29.80
2023-04-23T23:58:32.037Z,29.70
